Tiempo atmosférico en la estación meteorológica de Arcos de Jalón, Soria (863 m.)



Fecha
DESCASC
Temp. máxima en grados centígrados (hora)
DESCASC
Temp. mínima en grados centígrados (hora)
DESCASC
Temp. media en grados centígrados
DESCASC
Racha de viento máxima en m/sg (hora)
DESCASC
Velocidad máxima media en intervalos de 10 minutos(hora)
DESCASC
Precipitaciones diarias en mm
DESCASC
Precipitaciones de 00:00 a 06:00 en mm
DESCASC
Precipitaciones de 06:00 a 12:00 en mm
DESCASC
Precipitaciones de 12:00 a 18:00 en mm
DESCASC
Precipitaciones de 18:00 a 24:00 en mm
DESCASC
11-12-2019 6.9 (14:00) 0.5 (23:50) 3.7 11.39 (14:00) 8.61 (14:00) 0 0 0 0 0
08-12-2019 10.8 (13:40) 1.7 (00:00) 6.3 8.33 (14:40) 5.83 (14:40) 2.2 0 0 1.8 0.4
07-12-2019 13.3 (15:50) 1.6 (00:00) 7.5 6.39 (09:30) 4.72 (04:00) 0 0 0 0 0
06-12-2019 11.7 (15:30) 3.2 (00:00) 7.4 4.72 (21:50) 3.61 (22:20) 0 0 0 0 0
05-12-2019 8.6 (14:10) 5.2 (00:00) 6.9 6.39 (00:50) 3.89 (06:10) 0.8 0.6 0.2 0 0
04-12-2019 8.5 (15:30) 1.5 (00:00) 5 7.5 (16:10) 3.89 (23:50) 1.2 0.8 0 0.2 0.2
03-12-2019 3.7 (16:20) -0.6 (-00:0) 1.6 9.17 (13:30) 3.89 (13:30) 0 0 0 0 0
02-12-2019 9 (13:30) 0.8 (00:00) 4.9 10.28 (17:50) 5.83 (17:40) 0 0 0 0 0
01-12-2019 9.4 (14:00) 1.8 (00:00) 5.6 6.67 (11:10) 4.72 (12:30) 0 0 0 0 0
30-11-2019 13.8 (12:10) 5 (00:00) 9.4 15.28 (17:50) 10 (15:00) 6 0 0 0 6
29-11-2019 14.9 (14:10) 8.6 (00:00) 11.8 11.67 (00:30) 7.78 (00:30) 0 0 0 0 0
28-11-2019 11.2 (13:50) 7.7 (06:10) 9.4 14.72 (21:20) 8.89 (21:20) 0 0 0 0 0
27-11-2019 13 (15:10) 6.4 (00:00) 9.7 17.22 (00:20) 11.11 (00:10) 1 0.8 0.2 0 0
26-11-2019 14.1 (13:40) 6.8 (00:00) 10.5 19.72 (23:10) 13.06 (22:50) 0 0 0 0 0
25-11-2019 13.9 (14:50) 6.2 (00:20) 10 11.94 (05:30) 7.22 (04:50) 0.4 0.4 0 0 0
24-11-2019 9.1 (15:30) 4 (00:00) 6.6 14.72 (08:40) 8.06 (06:10) 0 0 0 0 0
23-11-2019 9 (14:30) 4.1 (00:00) 6.5 17.78 (01:40) 12.5 (14:40) 3.8 3.6 0.2 0 0
22-11-2019 10.9 (18:10) 4.1 (00:00) 7.5 20 (14:50) 13.61 (15:00) 3.2 0 0 1.2 2
21-11-2019 9.2 (15:30) 4.1 (00:00) 6.6 11.11 (12:00) 8.06 (13:50) 0 0 0 0 0
20-11-2019 9.6 (15:30) 0.6 (06:50) 5.1 12.22 (14:50) 7.5 (15:00) 0 0 0 0 0
19-11-2019 9.7 (15:50) -1.7 (-00:0) 4 9.44 (12:10) 7.22 (12:10) 0 0 0 0 0
18-11-2019 7.6 (14:30) 0.3 (00:00) 3.9 10.28 (01:20) 7.5 (01:20) 0.2 0 0 0.2 0
17-11-2019 7.5 (12:30) 0.7 (00:00) 4.1 13.89 (09:00) 10 (09:00) 8.2 0 0 3.8 4.4
16-11-2019 6.5 (16:20) -1 (-00:0) 2.8 12.5 (15:20) 8.33 (12:30) 0.2 0 0 0.2 0
15-11-2019 6.5 (16:30) 1.4 (00:00) 3.9 14.17 (16:50) 9.72 (12:20) 0.2 0 0 0 0.2
14-11-2019 8.3 (00:00) 1.9 (00:00) 5.1 15.56 (07:10) 10.28 (13:50) 4.8 0 4 0 0.8
13-11-2019 12.1 (13:00) 6.3 (00:00) 9.2 13.06 (07:50) 8.06 (08:00) 8 7.2 0.8 0 0
12-11-2019 10.2 (15:20) 0.9 (00:00) 5.5 11.11 (15:00) 7.78 (14:50) 0.4 0 0 0 0.4

Gráficas

Temp. máximas Temp. mínimas Temp. medias Precipitaciones Rachas de viento máximas Velocidades máximas media en intervalos de 10 minutos

Datos horarios

Fecha y hora oficial Temperatura (ºC) Velocidad del viento (km/h) Dirección del viento Racha (km/h) Dirección de racha Precipitación (mm) Presión (hPa) Tendencia (hPa) Humedad (%)
2019-12-11 23:00:00 1 3 Oeste 10 Sudoeste 0 -- -- 85
2019-12-11 22:00:00 1.3 9 Sudoeste 15 Sudoeste 0 -- -- 83
2019-12-11 21:00:00 1.7 8 Sudoeste 22 Sudoeste 0 -- -- 81
2019-12-11 20:00:00 2.9 17 Sudoeste 25 Sudoeste 0 -- -- 82
2019-12-11 19:00:00 2.9 14 Sudoeste 17 Sudoeste 0 -- -- 85
2019-12-11 18:00:00 4.2 4 Sudoeste 36 Sudoeste 0 -- -- 77
2019-12-11 17:00:00 5.8 23 Sudoeste 34 Sudoeste 0 -- -- 73
2019-12-11 16:00:00 5.5 17 Sudoeste 38 Sudoeste 0 -- -- 81
2019-12-11 15:00:00 5.9 18 Sudoeste 40 Sudoeste 0 -- -- 81
2019-12-11 14:00:00 6.9 31 Sudoeste 41 Sudoeste 0 -- -- 82
2019-12-11 13:00:00 5.9 11 Sudoeste 26 Oeste 0 -- -- 83
2019-12-11 12:00:00 5.7 16 Sudoeste 21 Sudoeste 0 -- -- 79
2019-12-11 11:00:00 5.3 14 Sudoeste 26 Sudoeste 0 -- -- 81
2019-12-11 10:00:00 4.9 5 Oeste 19 Sudoeste 0 -- -- 77
2019-12-11 09:00:00 3.9 12 Sudoeste 24 Sudoeste 0 -- -- 77
2019-12-11 08:00:00 3.4 18 Sudoeste 23 Sudoeste 0 -- -- 77
2019-12-11 07:00:00 2.5 8 Sudoeste 16 Sudoeste 0 -- -- 81
2019-12-11 06:00:00 2.3 3 Sudoeste 16 Oeste 0 -- -- 80
2019-12-11 05:00:00 3.3 10 Oeste 14 Oeste 0 -- -- 80
2019-12-11 04:00:00 2.6 9 Sudoeste 17 Oeste 0 -- -- 82
2019-12-11 03:00:00 3.1 15 Sudoeste 19 Sudoeste 0 -- -- 81
2019-12-11 02:00:00 3.2 12 Sudoeste 19 Oeste 0 -- -- 81
2019-12-11 01:00:00 3.4 9 Sudoeste 12 Sudoeste 0 -- -- 79
2019-12-11 00:00:00 4 5 Oeste 20 Oeste 0 -- -- 79
2019-12-10 23:00:00 4.2 5 Oeste 18 Sudoeste 0 -- -- 80
2019-12-10 22:00:00 4.6 11 Oeste 16 Oeste 0 -- -- 81
2019-12-10 21:00:00 5.5 9 Oeste 15 Oeste 0 -- -- 76
2019-12-10 20:00:00 6.6 4 Sudoeste 13 Sudoeste 0 -- -- 73
2019-12-10 19:00:00 6.9 9 Sudoeste 14 Sudoeste 0 -- -- 69
2019-12-10 18:00:00 8.7 3 Este 21 Sudoeste 0 -- -- 59
2019-12-10 17:00:00 11.1 12 Sudoeste 24 Sudoeste 0 -- -- 56
2019-12-10 16:00:00 12.1 13 Sudoeste 29 Sudoeste 0 -- -- 50
2019-12-10 15:00:00 12.7 15 Sudoeste 23 Sudoeste 0 -- -- 43
2019-12-10 14:00:00 12.5 13 Sudoeste 22 Sudoeste 0 -- -- 48
2019-12-10 13:00:00 11.6 10 Sudoeste 23 Sudoeste 0 -- -- 53
2019-12-10 12:00:00 8.9 17 Sudoeste 25 Sudoeste 0 -- -- 66
2019-12-10 11:00:00 6.1 15 Sudoeste 22 Sudoeste 0 -- -- 79
2019-12-10 10:00:00 2.9 2 Norte 11 Sudoeste 0 -- -- 92
2019-12-10 09:00:00 -0.6 0 Calma 8 Sudoeste 0 -- -- 94
2019-12-10 08:00:00 -1.4 3 Sudoeste 7 Sudoeste 0 -- -- 93
2019-12-10 07:00:00 -1.4 0 Calma 7 Sudoeste 0 -- -- 91
2019-12-10 06:00:00 -0.3 2 Sudoeste 5 Sur 0 -- -- 89
2019-12-10 05:00:00 1 5 Sudoeste 15 Sudoeste 0 -- -- 88
2019-12-10 04:00:00 1.5 9 Oeste 24 Sudoeste 0 -- -- 88
2019-12-10 03:00:00 1.6 15 Sudoeste 18 Sudoeste 0 -- -- 89
2019-12-10 02:00:00 1.6 6 Sudoeste 13 Sudoeste 0 -- -- 88
2019-12-10 01:00:00 2.1 6 Sudoeste 15 Oeste 0 -- -- 87
2019-12-10 00:00:00 2.5 12 Sudoeste 17 Sudoeste 0 -- -- 87
2019-12-09 23:00:00 3 10 Sudoeste 20 Sudoeste 0 -- -- 84
2019-12-09 22:00:00 3.4 8 Oeste 21 Sudoeste 0 -- -- 84
2019-12-09 21:00:00 3.7 8 Oeste 14 Oeste 0 -- -- 84
2019-12-09 20:00:00 4.5 12 Oeste 17 Oeste 0 -- -- 82
2019-12-09 19:00:00 5.8 12 Oeste 19 Oeste 0 -- -- 76
2019-12-09 18:00:00 7.5 15 Oeste 31 Oeste 0 -- -- 70
2019-12-09 17:00:00 9.7 24 Oeste 33 Oeste 0 -- -- 61
2019-12-09 16:00:00 11.1 14 Sudoeste 30 Sudoeste 0 -- -- 57
2019-12-09 15:00:00 10.2 18 Sudoeste 27 Sudoeste 0 -- -- 57
2019-12-09 14:00:00 9.8 23 Sudoeste 35 Sudoeste 0 -- -- 60
2019-12-09 13:00:00 9.4 27 Sudoeste 36 Sudoeste 0 -- -- 64
2019-12-09 12:00:00 8.7 17 Oeste 29 Oeste 0 -- -- 69
2019-12-09 11:00:00 8.4 4 Norte 22 Oeste 0 -- -- 76
2019-12-09 10:00:00 6.8 10 Sudoeste 21 Sudoeste 0 -- -- 82
2019-12-09 09:00:00 5.1 13 Sudoeste 34 Sudoeste 0 -- -- 86
2019-12-09 08:00:00 5.3 17 Sudoeste 29 Sudoeste 0 -- -- 85
2019-12-09 07:00:00 4.5 3 Sudoeste 15 Sur 0 -- -- 87
2019-12-09 06:00:00 5.8 5 Sur 14 Sudoeste 0 -- -- 87
2019-12-09 05:00:00 5.3 9 Sur 19 Sur 0 -- -- 88
2019-12-09 04:00:00 5.5 14 Sudoeste 32 Sudoeste 0 -- -- 88
2019-12-09 03:00:00 6.5 21 Sudoeste 31 Oeste 0 -- -- 87
2019-12-09 02:00:00 7.5 3 Sudoeste 11 Sudoeste 0 -- -- 87
2019-12-09 01:00:00 7.9 6 Oeste 13 Sudoeste 0 -- -- 90
2019-12-09 00:00:00 8.2 9 Sudoeste 15 Sudoeste 0 -- -- 92
2019-12-08 23:00:00 8 6 Sudoeste 12 Sudoeste 0 -- -- 93
2019-12-08 22:00:00 7.5 3 Sudoeste 14 Sudoeste 0 -- -- 92
2019-12-08 21:00:00 7.7 10 Sudoeste 14 Sudoeste 0 -- -- 93
2019-12-08 20:00:00 7.7 4 Oeste 11 Sudoeste 0 -- -- 92
2019-12-08 19:00:00 7.8 6 Sudoeste 16 Sudoeste 0.4 -- -- 92
2019-12-08 18:00:00 8.2 10 Sudoeste 19 Sudoeste 0.8 -- -- 91
2019-12-08 17:00:00 8.5 9 Sudoeste 24 Sudoeste 0.8 -- -- 89
2019-12-08 16:00:00 9.3 12 Sudoeste 30 Sudoeste 0.2 -- -- 83
2019-12-08 15:00:00 10 14 Sudoeste 30 Sudoeste 0 -- -- 76
2019-12-08 14:00:00 10.7 13 Sudoeste 21 Sudoeste 0 -- -- 71
2019-12-08 13:00:00 10 12 Sudoeste 22 Sudoeste 0 -- -- 72
2019-12-08 12:00:00 9.7 12 Sudoeste 19 Sudoeste 0 -- -- 75
2019-12-08 11:00:00 7.1 0 Calma 16 Sur 0 -- -- 82
2019-12-08 10:00:00 4.8 10 Sur 13 Sur 0 -- -- 89
2019-12-08 09:00:00 2.2 9 Sudoeste 18 Oeste 0 -- -- 90
2019-12-08 08:00:00 2.6 12 Oeste 17 Sudoeste 0 -- -- 92
2019-12-08 07:00:00 1.9 6 Sudoeste 11 Sudoeste 0 -- -- 93
2019-12-08 06:00:00 2.7 4 Sur 18 Sudoeste 0 -- -- 91
2019-12-08 05:00:00 2.5 14 Sudoeste 17 Sudoeste 0 -- -- 90
2019-12-08 04:00:00 3.2 9 Sudoeste 18 Sudoeste 0 -- -- 90
2019-12-08 03:00:00 2.9 4 Sudoeste 9 Sudoeste 0 -- -- 90
2019-12-08 02:00:00 3 5 Sudoeste 16 Oeste 0 -- -- 90
2019-12-08 01:00:00 3.8 9 Oeste 14 Oeste 0 -- -- 88
2019-12-08 00:00:00 4.5 10 Oeste 16 Sudoeste 0 -- -- 85
2019-12-07 23:00:00 4.5 7 Sudoeste 14 Sudoeste 0 -- -- 85
2019-12-07 22:00:00 4.8 10 Sudoeste 20 Sudoeste 0 -- -- 86
2019-12-07 21:00:00 5.3 11 Sudoeste 14 Sudoeste 0 -- -- 85
2019-12-07 20:00:00 5.6 7 Sudoeste 11 Sur 0 -- -- 85
2019-12-07 19:00:00 6.6 9 Sudoeste 12 Sudoeste 0 -- -- 83
2019-12-07 18:00:00 9.6 0 Calma 5 Norte 0 -- -- 74
2019-12-07 17:00:00 12.1 2 Nordeste 6 Noroeste 0 -- -- 69
2019-12-07 16:00:00 13 4 Nordeste 6 Nordeste 0 -- -- 65
2019-12-07 15:00:00 12.5 3 Nordeste 8 Norte 0 -- -- 68
2019-12-07 14:00:00 11.3 4 Este 11 Nordeste 0 -- -- 72
2019-12-07 13:00:00 9.9 8 Nordeste 12 Este 0 -- -- 75
2019-12-07 12:00:00 9.3 5 Nordeste 10 Sudoeste 0 -- -- 76
2019-12-07 11:00:00 6.7 9 Sudoeste 16 Oeste 0 -- -- 87
2019-12-07 10:00:00 3.8 10 Sudoeste 23 Sudoeste 0 -- -- 92
2019-12-07 09:00:00 2 10 Sudoeste 17 Oeste 0 -- -- 93
2019-12-07 08:00:00 1.8 10 Oeste 15 Oeste 0 -- -- 92
2019-12-07 07:00:00 2 12 Sudoeste 17 Sudoeste 0 -- -- 92
2019-12-07 06:00:00 1.7 9 Oeste 18 Oeste 0 -- -- 92
2019-12-07 05:00:00 2.1 14 Oeste 22 Sudoeste 0 -- -- 91
2019-12-07 04:00:00 3.2 17 Sudoeste 22 Sudoeste 0 -- -- 92
2019-12-07 03:00:00 2.3 10 Sudoeste 13 Sudoeste 0 -- -- 91
2019-12-07 02:00:00 2.8 9 Sudoeste 13 Sudoeste 0 -- -- 92
2019-12-07 01:00:00 2.8 9 Sudoeste 14 Sudoeste 0 -- -- 92
2019-12-07 00:00:00 3.5 10 Sudoeste 16 Oeste 0 -- -- 92
2019-12-06 23:00:00 3.5 10 Oeste 15 Sudoeste 0 -- -- 92
2019-12-06 22:00:00 4.7 12 Sudoeste 17 Sudoeste 0 -- -- 91
2019-12-06 21:00:00 4.5 10 Sudoeste 14 Sudoeste 0 -- -- 91
2019-12-06 20:00:00 5.1 10 Sudoeste 12 Sudoeste 0 -- -- 89
2019-12-06 19:00:00 5.9 8 Sudoeste 10 Sudoeste 0 -- -- 85
2019-12-06 18:00:00 9.1 0 Calma 3 Este 0 -- -- 75
2019-12-06 17:00:00 10.9 3 Nordeste 10 Este 0 -- -- 71
2019-12-06 16:00:00 11.6 5 Nordeste 10 Nordeste 0 -- -- 70
2019-12-06 15:00:00 11.6 6 Este 11 Nordeste 0 -- -- 71
2019-12-06 14:00:00 11 5 Nordeste 11 Este 0 -- -- 71
2019-12-06 13:00:00 9.6 4 Nordeste 14 Nordeste 0 -- -- 76
2019-12-06 12:00:00 9.2 5 Nordeste 9 Nordeste 0 -- -- 78
2019-12-06 11:00:00 8.1 2 Este 10 Norte 0 -- -- 86
2019-12-06 10:00:00 6.3 0 Calma 6 Sudoeste 0 -- -- 97
2019-12-06 09:00:00 4.6 3 Oeste 6 Oeste 0 -- -- 96
2019-12-06 08:00:00 4.5 2 Oeste 4 Sudoeste 0 -- -- 96
2019-12-06 07:00:00 4.3 3 Sudoeste 4 Oeste 0 -- -- 96
2019-12-06 06:00:00 4.1 0 Calma 4 Noroeste 0 -- -- 95
2019-12-06 05:00:00 3.9 0 Calma 9 Oeste 0 -- -- 95
2019-12-06 04:00:00 3.4 2 Sur 9 Sur 0 -- -- 94
2019-12-06 03:00:00 3.2 2 Sudoeste 5 Sudoeste 0 -- -- 93
2019-12-06 02:00:00 4.8 0 Calma 4 Noroeste 0 -- -- 91
2019-12-06 01:00:00 6.3 0 Calma 6 Sudeste 0 -- -- 91
2019-12-06 00:00:00 6.5 0 Calma 6 Sur 0 -- -- 91
2019-12-05 23:00:00 6.8 3 Sur 5 Norte 0 -- -- 89
2019-12-05 22:00:00 7 4 Nordeste 10 Norte 0 -- -- 88
2019-12-05 21:00:00 7.1 5 Norte 9 Norte 0 -- -- 87
2019-12-05 20:00:00 7 4 Norte 9 Noroeste 0 -- -- 87
2019-12-05 19:00:00 6.8 4 Norte 9 Nordeste 0 -- -- 88
2019-12-05 18:00:00 7.4 5 Nordeste 15 Nordeste 0 -- -- 85
2019-12-05 17:00:00 8.1 9 Nordeste 15 Nordeste 0 -- -- 81
2019-12-05 16:00:00 8.5 8 Nordeste 16 Nordeste 0 -- -- 79
2019-12-05 15:00:00 8.4 7 Norte 13 Nordeste 0 -- -- 80
2019-12-05 14:00:00 8.5 5 Nordeste 10 Este 0 -- -- 81
2019-12-05 13:00:00 7.3 4 Este 6 Este 0 -- -- 84
2019-12-05 12:00:00 6.6 3 Nordeste 7 Este 0 -- -- 85
2019-12-05 11:00:00 6.1 2 Nordeste 9 Norte 0 -- -- 86
2019-12-05 10:00:00 5.6 3 Norte 10 Noroeste 0 -- -- 87
2019-12-05 09:00:00 5.3 0 Calma 5 Norte 0 -- -- 88
2019-12-05 08:00:00 5.2 2 Nordeste 10 Norte 0 -- -- 88
2019-12-05 07:00:00 5.3 0 Calma 21 Norte 0.2 -- -- 90
2019-12-05 06:00:00 5.5 13 Norte 21 Norte 0.2 -- -- 87
2019-12-05 05:00:00 5.3 4 Norte 11 Norte 0.2 -- -- 88
2019-12-05 04:00:00 5.7 5 Norte 13 Norte 0.2 -- -- 85
2019-12-05 03:00:00 5.8 4 Norte 9 Noroeste 0 -- -- 81
2019-12-05 02:00:00 5.8 6 Norte 23 Noroeste 0 -- -- 80
2019-12-05 01:00:00 5.7 12 Norte 23 Noroeste 0 -- -- 79
2019-12-05 00:00:00 5.9 12 Noroeste 24 Norte 0 -- -- 80
2019-12-04 23:00:00 6.7 2 Norte 15 Norte 0 -- -- 79
2019-12-04 22:00:00 6.8 7 Norte 23 Norte 0 -- -- 81
2019-12-04 21:00:00 7.1 11 Norte 25 Norte 0 -- -- 80
2019-12-04 20:00:00 6.3 3 Sudoeste 9 Oeste 0 -- -- 91
2019-12-04 19:00:00 6.6 5 Sudoeste 6 Sudoeste 0.2 -- -- 90
2019-12-04 18:00:00 7 4 Nordeste 15 Nordeste 0 -- -- 86
2019-12-04 17:00:00 7.6 12 Nordeste 27 Norte 0 -- -- 82
2019-12-04 16:00:00 8.4 12 Nordeste 23 Nordeste 0 -- -- 78
2019-12-04 15:00:00 8.3 9 Nordeste 19 Nordeste 0 -- -- 81
2019-12-04 14:00:00 7.7 2 Este 6 Nordeste 0 -- -- 84
2019-12-04 13:00:00 7.3 2 Nordeste 8 Nordeste 0.2 -- -- 85
2019-12-04 12:00:00 6.5 2 Sudeste 7 Este 0 -- -- 91
2019-12-04 11:00:00 4.7 0 Calma 4 Nordeste 0 -- -- 93
2019-12-04 10:00:00 3.6 0 Calma 4 Sudoeste 0 -- -- 93
2019-12-04 09:00:00 2.9 0 Calma 3 Sudoeste 0 -- -- 93
2019-12-04 08:00:00 2.7 0 Calma 4 Sudoeste 0 -- -- 92
2019-12-04 07:00:00 2.5 0 Calma 4 Oeste 0 -- -- 93
2019-12-04 06:00:00 2.3 0 Calma 6 Sudoeste 0 -- -- 93
2019-12-04 05:00:00 2.1 0 Calma 5 Sudoeste 0 -- -- 94
2019-12-04 04:00:00 1.9 0 Calma 3 Sudoeste 0 -- -- 94
2019-12-04 03:00:00 1.7 0 Calma 4 Sur 0 -- -- 93
2019-12-04 02:00:00 1.5 2 Sur 3 Sur 0 -- -- 93
2019-12-04 01:00:00 1.5 2 Sudoeste 4 Sudoeste 0.8 -- -- 92
2019-12-04 00:00:00 1.5 0 Calma 4 Este 0 -- -- 91
2019-12-03 23:00:00 1.3 0 Calma 5 Nordeste 0 -- -- 91
2019-12-03 22:00:00 1 2 Nordeste 5 Nordeste 0 -- -- 91
2019-12-03 21:00:00 1 0 Calma 3 Nordeste 0 -- -- 88
2019-12-03 20:00:00 2 2 Nordeste 13 Nordeste 0 -- -- 85
2019-12-03 19:00:00 2.6 5 Norte 12 Norte 0 -- -- 83
2019-12-03 18:00:00 3.3 6 Norte 18 Norte 0 -- -- 79
2019-12-03 17:00:00 3.7 9 Nordeste 21 Nordeste 0 -- -- 78
2019-12-03 16:00:00 3.6 11 Nordeste 24 Norte 0 -- -- 78
2019-12-03 15:00:00 3.1 12 Nordeste 23 Norte 0 -- -- 79
2019-12-03 14:00:00 3 13 Norte 33 Norte 0 -- -- 80
2019-12-03 13:00:00 2.5 11 Norte 21 Norte 0 -- -- 82
2019-12-03 12:00:00 2.3 8 Nordeste 17 Norte 0 -- -- 83
2019-12-03 11:00:00 1.7 6 Nordeste 15 Nordeste 0 -- -- 86
2019-12-03 10:00:00 0.8 0 Calma 4 Nordeste 0 -- -- 90
2019-12-03 09:00:00 -0.3 2 Sur 5 Oeste 0 -- -- 91
2019-12-03 08:00:00 -0.3 0 Calma 3 Sudoeste 0 -- -- 89
2019-12-03 07:00:00 0.6 2 Sudoeste 4 Nordeste 0 -- -- 86
2019-12-03 06:00:00 0.9 0 Calma 8 Noroeste 0 -- -- 86
2019-12-03 05:00:00 0.9 3 Noroeste 9 Norte 0 -- -- 84
2019-12-03 04:00:00 0.9 2 Norte 6 Norte 0 -- -- 86
2019-12-03 03:00:00 0.4 0 Calma 3 Oeste 0 -- -- 91
2019-12-03 02:00:00 -0.6 2 Sudoeste 9 Sudeste 0 -- -- 90
2019-12-03 01:00:00 -0.1 3 Sudoeste 6 Sur 0 -- -- 89
2019-12-03 00:00:00 0.8 2 Sudoeste 7 Este 0 -- -- 84
2019-12-02 23:00:00 2.3 3 Nordeste 22 Norte 0 -- -- 81
2019-12-02 22:00:00 3.3 7 Norte 17 Noroeste 0 -- -- 79
2019-12-02 21:00:00 4 6 Nordeste 22 Norte 0 -- -- 81
2019-12-02 20:00:00 4.6 14 Norte 36 Noroeste 0 -- -- 79
2019-12-02 19:00:00 5.6 19 Noroeste 36 Noroeste 0 -- -- 78
2019-12-02 18:00:00 6.1 20 Noroeste 37 Noroeste 0 -- -- 75
2019-12-02 17:00:00 6.8 14 Noroeste 33 Norte 0 -- -- 72
2019-12-02 16:00:00 7.4 17 Noroeste 32 Noroeste 0 -- -- 70
2019-12-02 15:00:00 7.7 17 Norte 35 Norte 0 -- -- 68
2019-12-02 14:00:00 8.1 14 Norte 28 Norte 0 -- -- 68
2019-12-02 13:00:00 8 6 Norte 19 Este 0 -- -- 74
2019-12-02 12:00:00 6.8 16 Norte 26 Norte 0 -- -- 77
2019-12-02 11:00:00 5.2 4 Nordeste 12 Norte 0 -- -- 88
2019-12-02 10:00:00 3.2 0 Calma 4 Este 0 -- -- 93
2019-12-02 09:00:00 2.2 0 Calma 2 Norte 0 -- -- 93
2019-12-02 08:00:00 1.7 0 Calma 3 Este 0 -- -- 92
2019-12-02 07:00:00 2.2 0 Calma 9 Norte 0 -- -- 89
2019-12-02 06:00:00 2.7 0 Calma 9 Noroeste 0 -- -- 88
2019-12-02 05:00:00 3.5 4 Noroeste 14 Noroeste 0 -- -- 87
2019-12-02 04:00:00 3.8 4 Noroeste 12 Norte 0 -- -- 85
2019-12-02 03:00:00 4.7 4 Norte 18 Noroeste 0 -- -- 87
2019-12-02 02:00:00 4.1 7 Noroeste 15 Norte 0 -- -- 93
2019-12-02 01:00:00 3.4 0 Calma 4 Sur 0 -- -- 93
2019-12-02 00:00:00 3.2 0 Calma 4 Sur 0 -- -- 92
2019-12-01 23:00:00 3.4 0 Calma 4 Oeste 0 -- -- 91
2019-12-01 22:00:00 4.6 0 Calma 4 Norte 0 -- -- 90
2019-12-01 21:00:00 4.6 0 Calma 4 Nordeste 0 -- -- 90
2019-12-01 20:00:00 4.9 0 Calma 3 Nordeste 0 -- -- 87
2019-12-01 19:00:00 5.9 0 Calma 4 Sur 0 -- -- 84
2019-12-01 18:00:00 7.6 0 Calma 7 Este 0 -- -- 77
2019-12-01 17:00:00 8.2 5 Nordeste 13 Norte 0 -- -- 73
2019-12-01 16:00:00 8.5 9 Norte 14 Norte 0 -- -- 75
2019-12-01 15:00:00 9.3 3 Este 11 Sur 0 -- -- 70
2019-12-01 14:00:00 9.4 3 Sur 15 Sudoeste 0 -- -- 68
2019-12-01 13:00:00 8.4 11 Sudoeste 24 Sudoeste 0 -- -- 72
2019-12-01 12:00:00 8.8 12 Sur 24 Sur 0 -- -- 73
2019-12-01 11:00:00 7.9 11 Sur 23 Sur 0 -- -- 79
2019-12-01 10:00:00 6.1 10 Sudoeste 15 Sudoeste 0 -- -- 87
2019-12-01 09:00:00 4.4 6 Sudoeste 14 Sudoeste 0 -- -- 89
2019-12-01 08:00:00 4.5 11 Sur 23 Sur 0 -- -- 88
2019-12-01 07:00:00 4.1 14 Sudoeste 22 Sur 0 -- -- 93
2019-12-01 06:00:00 2.9 8 Sur 19 Sudoeste 0 -- -- 94
2019-12-01 05:00:00 2.3 8 Sudoeste 19 Oeste 0 -- -- 94
2019-12-01 04:00:00 2.1 10 Oeste 16 Oeste 0 -- -- 92
2019-12-01 03:00:00 2.7 4 Sudoeste 11 Sudoeste 0 -- -- 91
2019-12-01 02:00:00 3.4 5 Sudoeste 13 Oeste 0 -- -- 90
2019-12-01 01:00:00 4.8 8 Sudoeste 13 Oeste 0 -- -- 88
2019-12-01 00:00:00 5.1 3 Nordeste 19 Sudoeste 0.6 -- -- 88
2019-11-30 23:00:00 5.1 13 Sudoeste 50 Sudoeste 1 -- -- 87
2019-11-30 22:00:00 6.6 22 Sudoeste 44 Oeste 0.2 -- -- 78
2019-11-30 21:00:00 7.1 21 Oeste 37 Oeste 0.6 -- -- 85
2019-11-30 20:00:00 8.5 14 Sudoeste 50 Sudoeste 0.8 -- -- 89
2019-11-30 19:00:00 10.5 35 Sudoeste 51 Sudoeste 2.8 -- -- 85
2019-11-30 18:00:00 12.1 29 Sur 55 Sur 0 -- -- 77
2019-11-30 17:00:00 12.1 20 Sur 44 Sur 0 -- -- 78
2019-11-30 16:00:00 12.7 28 Sur 46 Sudoeste 0 -- -- 76
2019-11-30 15:00:00 12.5 36 Sur 52 Sur 0 -- -- 76
2019-11-30 14:00:00 12.9 26 Sur 39 Sudoeste 0 -- -- 76
2019-11-30 13:00:00 13 21 Sur 41 Sur 0 -- -- 77
2019-11-30 12:00:00 13.7 23 Sur 36 Sur 0 -- -- 77
2019-11-30 11:00:00 12.2 19 Sudoeste 32 Sudoeste 0 -- -- 86
2019-11-30 10:00:00 11.6 15 Sur 29 Sur 0 -- -- 87
2019-11-30 09:00:00 11.5 20 Sur 28 Sur 0 -- -- 82
2019-11-30 08:00:00 11 15 Sur 28 Sur 0 -- -- 88
2019-11-30 07:00:00 11.1 14 Sur 23 Sur 0 -- -- 88
2019-11-30 06:00:00 11.2 16 Sudoeste 27 Sur 0 -- -- 87
2019-11-30 05:00:00 11.4 21 Sudoeste 33 Sudoeste 0 -- -- 85
2019-11-30 04:00:00 10.8 18 Sudoeste 28 Sudoeste 0 -- -- 88
2019-11-30 03:00:00 10.8 6 Sudoeste 24 Sudoeste 0 -- -- 87
2019-11-30 02:00:00 10.2 12 Sudoeste 18 Sudoeste 0 -- -- 92
2019-11-30 01:00:00 9.6 11 Sudoeste 19 Sudoeste 0 -- -- 92
2019-11-30 00:00:00 8.6 8 Sudoeste 14 Sudoeste 0 -- -- 91
2019-11-29 23:00:00 8.9 8 Sudoeste 17 Oeste 0 -- -- 92
2019-11-29 22:00:00 9.5 7 Sudoeste 13 Oeste 0 -- -- 91
2019-11-29 21:00:00 9.7 8 Sudoeste 14 Oeste 0 -- -- 90
2019-11-29 20:00:00 11.5 6 Sudoeste 13 Sudoeste 0 -- -- 87
2019-11-29 19:00:00 11.9 9 Sudoeste 16 Sudoeste 0 -- -- 85
2019-11-29 18:00:00 12.5 12 Sudoeste 17 Sudoeste 0 -- -- 83
2019-11-29 17:00:00 13 12 Sudoeste 26 Sudoeste 0 -- -- 80
2019-11-29 16:00:00 13.3 15 Sudoeste 22 Sur 0 -- -- 79
2019-11-29 15:00:00 13.9 11 Sudoeste 26 Sudoeste 0 -- -- 74
2019-11-29 14:00:00 14.6 13 Sur 27 Sudoeste 0 -- -- 74
2019-11-29 13:00:00 13.2 13 Sudoeste 22 Sur 0 -- -- 80
2019-11-29 12:00:00 12.6 14 Sur 21 Sudoeste 0 -- -- 84
2019-11-29 11:00:00 11.9 15 Sudoeste 24 Sudoeste 0 -- -- 88
2019-11-29 10:00:00 11 11 Oeste 18 Sudoeste 0 -- -- 90
2019-11-29 09:00:00 10.6 6 Oeste 16 Sudoeste 0 -- -- 89
2019-11-29 08:00:00 10.5 7 Sudoeste 15 Sur 0 -- -- 89
2019-11-29 07:00:00 10.4 10 Sudoeste 17 Sudoeste 0 -- -- 89
2019-11-29 06:00:00 10.4 8 Sudoeste 19 Sur 0 -- -- 88
2019-11-29 05:00:00 10.3 12 Sudoeste 24 Sur 0 -- -- 89
2019-11-29 04:00:00 10.1 15 Sur 27 Sur 0 -- -- 90
2019-11-29 03:00:00 10.1 18 Sudoeste 33 Sur 0 -- -- 89
2019-11-29 02:00:00 10.4 25 Sur 39 Sur 0 -- -- 85
2019-11-29 01:00:00 10.4 17 Sur 42 Sudoeste 0 -- -- 84
2019-11-29 00:00:00 10.2 22 Sudoeste 40 Sudoeste 0 -- -- 82
2019-11-28 23:00:00 10.3 22 Sudoeste 40 Sudoeste 0 -- -- 82
2019-11-28 22:00:00 10.2 22 Sur 53 Sur 0 -- -- 83
2019-11-28 21:00:00 10.1 27 Sur 43 Sudoeste 0 -- -- 82
2019-11-28 20:00:00 9.8 18 Sudoeste 40 Sudoeste 0 -- -- 81
2019-11-28 19:00:00 9.8 21 Sur 39 Sudoeste 0 -- -- 80
2019-11-28 18:00:00 9.8 24 Sur 40 Sur 0 -- -- 78
2019-11-28 17:00:00 10.2 18 Sur 35 Sur 0 -- -- 78
2019-11-28 16:00:00 10.5 24 Sur 43 Sur 0 -- -- 77
2019-11-28 15:00:00 10.8 25 Sur 40 Sur 0 -- -- 77
2019-11-28 14:00:00 10.9 30 Sur 41 Sur 0 -- -- 77
2019-11-28 13:00:00 10.6 26 Sur 43 Sur 0 -- -- 79
2019-11-28 12:00:00 9.5 23 Sur 35 Sur 0 -- -- 82
2019-11-28 11:00:00 9.2 23 Sur 38 Sur 0 -- -- 82
2019-11-28 10:00:00 8.7 26 Sur 39 Sur 0 -- -- 84
2019-11-28 09:00:00 8.2 24 Sur 48 Sur 0 -- -- 83
2019-11-28 08:00:00 8.2 19 Sudoeste 34 Sudoeste 0 -- -- 83
2019-11-28 07:00:00 8 19 Sur 33 Sur 0 -- -- 84
2019-11-28 06:00:00 7.8 24 Sur 39 Sudoeste 0 -- -- 83
2019-11-28 05:00:00 8.6 23 Sudoeste 31 Sudoeste 0 -- -- 80
2019-11-28 04:00:00 8.5 18 Sudoeste 36 Sudoeste 0 -- -- 80
2019-11-28 03:00:00 8.4 19 Sur 37 Sudoeste 0 -- -- 81
2019-11-28 02:00:00 8.1 19 Sudoeste 41 Sudoeste 0 -- -- 82
2019-11-28 01:00:00 8.9 26 Sudoeste 41 Sudoeste 0 -- -- 78
2019-11-28 00:00:00 9 22 Sudoeste 39 Sudoeste 0 -- -- 79
2019-11-27 23:00:00 8.8 19 Sudoeste 30 Sur 0 -- -- 81
2019-11-27 22:00:00 9 19 Sudoeste 31 Sudoeste 0 -- -- 78
2019-11-27 21:00:00 8.9 21 Sur 35 Sudoeste 0 -- -- 79
2019-11-27 20:00:00 9.4 21 Sudoeste 39 Sur 0 -- -- 77
2019-11-27 19:00:00 9.8 23 Sur 37 Sudoeste 0 -- -- 74
2019-11-27 18:00:00 10.3 15 Sudoeste 39 Sudoeste 0 -- -- 70
2019-11-27 17:00:00 11.3 25 Sudoeste 38 Sudoeste 0 -- -- 63
2019-11-27 16:00:00 12.4 27 Sudoeste 37 Sudoeste 0 -- -- 59
2019-11-27 15:00:00 12.9 23 Sur 36 Sudoeste 0 -- -- 60
2019-11-27 14:00:00 11.9 17 Sudoeste 37 Sudoeste 0 -- -- 61
2019-11-27 06:00:00 -- -- -- -- -- -- -- -- --
2019-11-27 05:00:00 9.6 25 Sudoeste 47 Sudoeste 0 -- -- 84
2019-11-27 04:00:00 10.1 27 Sudoeste 43 Sudoeste 0 -- -- 86
2019-11-27 03:00:00 10.2 30 Sudoeste 44 Sudoeste 0 -- -- 85
2019-11-27 02:00:00 10.4 30 Sudoeste 48 Sur 0.8 -- -- 88
2019-11-27 01:00:00 10.9 31 Sur 62 Sur 0 -- -- 85
2019-11-27 00:00:00 11.9 43 Sudoeste 71 Sur 0 -- -- 78
2019-11-26 23:00:00 12.4 41 Sur 63 Sur 0 -- -- 80
2019-11-26 22:00:00 12.5 34 Sur 53 Sur 0 -- -- 83
2019-11-26 21:00:00 12.7 31 Sur 49 Sur 0 -- -- 83
2019-11-26 20:00:00 12.4 32 Sur 58 Sur 0 -- -- 84
2019-11-26 19:00:00 12.5 35 Sur 61 Sur 0 -- -- 79
2019-11-26 18:00:00 12 40 Sur 64 Sur 0 -- -- 82
2019-11-26 17:00:00 12.3 36 Sur 58 Sur 0 -- -- 81
2019-11-26 16:00:00 12.7 33 Sur 51 Sur 0 -- -- 78
2019-11-26 15:00:00 13.4 33 Sur 54 Sur 0 -- -- 75
2019-11-26 14:00:00 13.8 16 Sur 43 Sur 0 -- -- 74
2019-11-26 13:00:00 13.5 26 Sudoeste 45 Sur 0 -- -- 74
2019-11-26 12:00:00 12.7 25 Sur 53 Sur 0 -- -- 75
2019-11-26 11:00:00 10.7 40 Sudoeste 55 Sudoeste 0 -- -- 84
2019-11-26 10:00:00 10.4 39 Sudoeste 55 Sudoeste 0 -- -- 80
2019-11-26 09:00:00 10 25 Sudoeste 40 Sudoeste 0 -- -- 82
2019-11-26 08:00:00 9.1 19 Sudoeste 33 Sudoeste 0 -- -- 86
2019-11-26 07:00:00 9 19 Sudoeste 38 Sur 0 -- -- 86
2019-11-26 06:00:00 8.8 22 Sudoeste 37 Sudoeste 0 -- -- 86
2019-11-26 05:00:00 8.7 17 Sudoeste 23 Sudoeste 0 -- -- 88
2019-11-26 04:00:00 8.5 15 Sudoeste 29 Sudoeste 0 -- -- 90
2019-11-26 03:00:00 8 18 Sur 27 Sudoeste 0 -- -- 92
2019-11-26 02:00:00 7.4 5 Oeste 15 Oeste 0 -- -- 90
2019-11-26 01:00:00 6.8 4 Oeste 11 Oeste 0 -- -- 90
2019-11-26 00:00:00 7.4 2 Sudoeste 10 Sur 0 -- -- 85
2019-11-25 23:00:00 8.1 7 Sudoeste 12 Sudoeste 0 -- -- 86
2019-11-25 22:00:00 8.5 0 Calma 12 Oeste 0 -- -- 84
2019-11-25 21:00:00 8.8 9 Sudoeste 12 Sudoeste 0 -- -- 85
2019-11-25 20:00:00 9.3 5 Sudoeste 9 Sudoeste 0 -- -- 83
2019-11-25 19:00:00 9.9 3 Sudoeste 15 Oeste 0 -- -- 83
2019-11-25 18:00:00 11.5 9 Sudoeste 18 Sudoeste 0 -- -- 77
2019-11-25 17:00:00 12.3 14 Sur 20 Sur 0 -- -- 74
2019-11-25 16:00:00 13.1 14 Sur 25 Sur 0 -- -- 71
2019-11-25 15:00:00 13.6 16 Sur 28 Sudoeste 0 -- -- 69
2019-11-25 14:00:00 12.7 18 Sudoeste 33 Sudoeste 0 -- -- 74
2019-11-25 13:00:00 12.7 21 Sudoeste 31 Sudoeste 0 -- -- 77
2019-11-25 12:00:00 10.5 16 Sur 24 Sur 0 -- -- 84
2019-11-25 11:00:00 10.3 13 Sur 28 Sudoeste 0 -- -- 85
2019-11-25 10:00:00 9.8 10 Sudoeste 22 Sudoeste 0 -- -- 86
2019-11-25 09:00:00 8.5 10 Sur 31 Sudoeste 0 -- -- 89
2019-11-25 08:00:00 8.5 23 Sur 35 Sur 0 -- -- 89
2019-11-25 07:00:00 8.6 18 Sur 37 Sur 0 -- -- 88
2019-11-25 06:00:00 8.3 16 Sudoeste 43 Sur 0 -- -- 89
2019-11-25 05:00:00 8.3 25 Sudoeste 39 Sur 0 -- -- 88
2019-11-25 04:00:00 7.9 16 Sudoeste 32 Sudoeste 0 -- -- 88
2019-11-25 03:00:00 7.4 21 Sudoeste 34 Sudoeste 0 -- -- 88
2019-11-25 02:00:00 6.6 17 Sur 38 Sudoeste 0.4 -- -- 89
2019-11-25 01:00:00 6.5 18 Sudoeste 34 Sur 0 -- -- 80
2019-11-25 00:00:00 6.4 22 Sudoeste 44 Sur 0 -- -- 80
2019-11-24 23:00:00 6.5 19 Sudoeste 34 Sur 0 -- -- 76
2019-11-24 22:00:00 6.7 20 Sudoeste 31 Sudoeste 0 -- -- 73
2019-11-24 21:00:00 5.5 14 Sudoeste 23 Sudoeste 0 -- -- 76
2019-11-24 20:00:00 5.7 14 Sudoeste 21 Sudoeste 0 -- -- 77
2019-11-24 19:00:00 6 8 Sudoeste 16 Sudoeste 0 -- -- 74
2019-11-24 18:00:00 7.3 13 Sudoeste 27 Oeste 0 -- -- 67
2019-11-24 17:00:00 8.5 17 Oeste 28 Sudoeste 0 -- -- 61
2019-11-24 16:00:00 8.2 13 Sudoeste 37 Sudoeste 0 -- -- 63
2019-11-24 15:00:00 8.3 24 Sudoeste 39 Sudoeste 0 -- -- 63
2019-11-24 14:00:00 8.8 26 Sudoeste 42 Sudoeste 0 -- -- 64
2019-11-24 13:00:00 7.2 24 Oeste 37 Oeste 0 -- -- 72
2019-11-24 12:00:00 6.7 23 Sudoeste 39 Sudoeste 0 -- -- 74
2019-11-24 11:00:00 5.9 21 Sudoeste 40 Oeste 0 -- -- 77
2019-11-24 10:00:00 5.3 22 Sudoeste 44 Oeste 0 -- -- 77
2019-11-24 09:00:00 4.4 19 Oeste 53 Oeste 0 -- -- 81
2019-11-24 08:00:00 4 16 Sudoeste 40 Sudoeste 0 -- -- 80
2019-11-24 07:00:00 4.3 28 Oeste 50 Oeste 0 -- -- 79
2019-11-24 06:00:00 4.4 27 Oeste 44 Sudoeste 0 -- -- 80
2019-11-24 05:00:00 4.3 23 Sudoeste 36 Sudoeste 0 -- -- 80
2019-11-24 04:00:00 4.9 23 Sudoeste 42 Oeste 0 -- -- 79
2019-11-24 03:00:00 4.7 20 Sudoeste 35 Oeste 0 -- -- 80
2019-11-24 02:00:00 4.8 14 Sudoeste 31 Sudoeste 0 -- -- 79
2019-11-24 01:00:00 5.9 18 Sudoeste 31 Oeste 0 -- -- 76
2019-11-24 00:00:00 5.3 9 Sudoeste 17 Oeste 0 -- -- 80
2019-11-23 23:00:00 4.1 0 Calma 16 Sudoeste 0 -- -- 79
2019-11-23 22:00:00 5.5 12 Sudoeste 24 Sudoeste 0 -- -- 74
2019-11-23 21:00:00 5.7 15 Sur 26 Sudoeste 0 -- -- 73
2019-11-23 20:00:00 5.8 13 Sudoeste 34 Sudoeste 0 -- -- 72
2019-11-23 19:00:00 6.2 17 Sudoeste 46 Sudoeste 0 -- -- 71
2019-11-23 18:00:00 7.4 33 Sudoeste 53 Sudoeste 0 -- -- 66
2019-11-23 17:00:00 8.3 27 Sudoeste 54 Sudoeste 0 -- -- 64
2019-11-23 16:00:00 9 35 Sudoeste 58 Sudoeste 0 -- -- 59
2019-11-23 15:00:00 8.8 42 Sudoeste 63 Sudoeste 0 -- -- 61
2019-11-23 14:00:00 8.6 33 Sudoeste 56 Sudoeste 0 -- -- 64
2019-11-23 13:00:00 7.2 33 Sudoeste 58 Sudoeste 0 -- -- 70
2019-11-23 12:00:00 7.4 33 Sudoeste 54 Oeste 0 -- -- 70
2019-11-23 11:00:00 5.6 35 Sudoeste 53 Sudoeste 0 -- -- 75
2019-11-23 10:00:00 5.5 39 Sudoeste 51 Sudoeste 0 -- -- 76
2019-11-23 09:00:00 5.4 31 Sudoeste 49 Sudoeste 0 -- -- 79
2019-11-23 08:00:00 5.4 31 Sudoeste 51 Sudoeste 0 -- -- 81
2019-11-23 07:00:00 4.8 21 Sudoeste 32 Sudoeste 0.2 -- -- 88
2019-11-23 06:00:00 4.9 23 Sudoeste 40 Sudoeste 0.4 -- -- 86
2019-11-23 05:00:00 5.5 20 Sudoeste 35 Sudoeste 0 -- -- 86
2019-11-23 04:00:00 5.6 19 Sudoeste 37 Sudoeste 0 -- -- 83
2019-11-23 03:00:00 6.4 23 Sudoeste 42 Sur 0 -- -- 86
2019-11-23 02:00:00 5 24 Sudoeste 64 Oeste 3 -- -- 92
2019-11-23 01:00:00 8 29 Sudoeste 43 Sudoeste 0.2 -- -- 85
2019-11-23 00:00:00 8.2 26 Sudoeste 41 Sudoeste 0 -- -- 84
2019-11-22 23:00:00 8 19 Sudoeste 44 Sudoeste 0.2 -- -- 84
2019-11-22 22:00:00 8.2 23 Sudoeste 42 Sudoeste 0 -- -- 86
2019-11-22 21:00:00 7.5 16 Sur 69 Sudoeste 1.8 -- -- 88
2019-11-22 20:00:00 10.6 36 Sudoeste 60 Sur 0 -- -- 80
2019-11-22 19:00:00 10.4 40 Sur 60 Sur 0 -- -- 85
2019-11-22 18:00:00 10.8 37 Sur 67 Sur 0 -- -- 84
2019-11-22 17:00:00 10.7 30 Sur 55 Sur 0 -- -- 85
2019-11-22 16:00:00 10 29 Sur 70 Sur 0.6 -- -- 88
2019-11-22 15:00:00 9.7 49 Sur 72 Sur 0.6 -- -- 86
2019-11-22 14:00:00 10.4 37 Sur 60 Sur 0 -- -- 80
2019-11-22 13:00:00 10.4 31 Sur 59 Sur 0 -- -- 78
2019-11-22 12:00:00 9.7 41 Sur 62 Sur 0 -- -- 80
2019-11-22 11:00:00 8.8 31 Sur 53 Sur 0 -- -- 82
2019-11-22 10:00:00 8.9 24 Sur 41 Sur 0 -- -- 82
2019-11-22 09:00:00 7.4 7 Sur 32 Sur 0 -- -- 86
2019-11-22 08:00:00 7.1 12 Sur 22 Sur 0 -- -- 87
2019-11-22 07:00:00 6.7 12 Sur 23 Sur 0 -- -- 87
2019-11-22 06:00:00 6.6 12 Sur 21 Sur 0 -- -- 86
2019-11-22 05:00:00 6.1 9 Sur 21 Sur 0 -- -- 87
2019-11-22 04:00:00 4.8 0 Calma 11 Sur 0 -- -- 88
2019-11-22 03:00:00 5.5 9 Sur 18 Sur 0 -- -- 87
2019-11-22 02:00:00 5.3 10 Sur 17 Sur 0 -- -- 88
2019-11-22 01:00:00 4.3 2 Sur 5 Sudoeste 0 -- -- 91
2019-11-22 00:00:00 4.1 3 Sudoeste 5 Sudoeste 0 -- -- 89
2019-11-21 23:00:00 5.3 0 Calma 18 Sudoeste 0 -- -- 86
2019-11-21 22:00:00 5.5 9 Sudoeste 15 Sudoeste 0 -- -- 89
2019-11-21 21:00:00 5.3 11 Sudoeste 22 Sudoeste 0 -- -- 87
2019-11-21 20:00:00 4.1 9 Sudoeste 14 Sur 0 -- -- 88
2019-11-21 19:00:00 5.7 10 Sudoeste 20 Sudoeste 0 -- -- 85
2019-11-21 18:00:00 6.4 12 Sudoeste 27 Sudoeste 0 -- -- 81
2019-11-21 17:00:00 7.7 16 Sudoeste 29 Sudoeste 0 -- -- 78
2019-11-21 16:00:00 8.2 16 Sudoeste 33 Sudoeste 0 -- -- 76
2019-11-21 15:00:00 8.7 19 Sudoeste 32 Sudoeste 0 -- -- 76
2019-11-21 14:00:00 8.1 24 Sudoeste 39 Sudoeste 0 -- -- 75
2019-11-21 13:00:00 8.3 24 Sur 38 Sur 0 -- -- 75
2019-11-21 12:00:00 8.3 27 Sudoeste 40 Sudoeste 0 -- -- 79
2019-11-21 11:00:00 6.5 15 Sudoeste 30 Sur 0 -- -- 82
2019-11-21 10:00:00 6.1 13 Sudoeste 23 Sudoeste 0 -- -- 80
2019-11-21 09:00:00 5.4 18 Sur 31 Sudoeste 0 -- -- 81
2019-11-21 08:00:00 -- -- -- -- -- -- -- -- --
2019-11-21 07:00:00 -- -- -- -- -- -- -- -- --
2019-11-21 06:00:00 -- -- -- -- -- -- -- -- --
2019-11-21 05:00:00 -- -- -- -- -- -- -- -- --
2019-11-21 04:00:00 -- -- -- -- -- -- -- -- --
2019-11-21 03:00:00 -- -- -- -- -- -- -- -- --
2019-11-21 02:00:00 -- -- -- -- -- -- -- -- --
2019-11-21 01:00:00 -- -- -- -- -- -- -- -- --
2019-11-21 00:00:00 -- -- -- -- -- -- -- -- --
2019-11-20 23:00:00 -- -- -- -- -- -- -- -- --
2019-11-20 22:00:00 -- -- -- -- -- -- -- -- --
2019-11-20 21:00:00 -- -- -- -- -- -- -- -- --
2019-11-20 20:00:00 -- -- -- -- -- -- -- -- --
2019-11-20 19:00:00 5.2 12 Sudoeste 28 Sur 0 -- -- 82
2019-11-20 18:00:00 6 18 Sudoeste 32 Sur 0 -- -- 78
2019-11-20 17:00:00 7.4 18 Sur 36 Sur 0 -- -- 68
2019-11-20 16:00:00 8.7 26 Sur 37 Sur 0 -- -- 63
2019-11-20 15:00:00 8.2 27 Sur 44 Sudoeste 0 -- -- 64
2019-11-20 14:00:00 7.9 17 Sur 33 Sur 0 -- -- 66
2019-11-20 13:00:00 7.4 26 Sudoeste 41 Sur 0 -- -- 68
2019-11-20 12:00:00 7.6 22 Sudoeste 40 Sur 0 -- -- 70
2019-11-20 11:00:00 6.2 25 Sur 37 Sur 0 -- -- 74
2019-11-20 10:00:00 4.9 18 Sur 28 Sudoeste 0 -- -- 79
2019-11-20 09:00:00 2.5 16 Sudoeste 24 Sudoeste 0 -- -- 91
2019-11-20 08:00:00 0.7 5 Sudoeste 12 Oeste 0 -- -- 89
2019-11-20 07:00:00 0.6 9 Sudoeste 16 Sudoeste 0 -- -- 88
2019-11-20 06:00:00 1.5 14 Sudoeste 21 Sudoeste 0 -- -- 87
2019-11-20 05:00:00 1.6 10 Sudoeste 17 Sudoeste 0 -- -- 87
2019-11-20 04:00:00 1.5 9 Sudoeste 16 Sudoeste 0 -- -- 88
2019-11-20 03:00:00 1.4 11 Sudoeste 14 Sudoeste 0 -- -- 88
2019-11-20 02:00:00 1.6 7 Oeste 10 Oeste 0 -- -- 88
2019-11-20 01:00:00 1.6 5 Sudoeste 9 Sudoeste 0 -- -- 86
2019-11-20 00:00:00 2.1 8 Sudoeste 12 Sudoeste 0 -- -- 87
2019-11-19 23:00:00 2.6 7 Sudoeste 12 Sudoeste 0 -- -- 84
2019-11-19 22:00:00 3.2 5 Oeste 9 Sudoeste 0 -- -- 82
2019-11-19 21:00:00 4.3 5 Sudoeste 12 Sudoeste 0 -- -- 79
2019-11-19 20:00:00 4.4 7 Oeste 10 Oeste 0 -- -- 81
2019-11-19 19:00:00 4.6 8 Sudoeste 14 Sudoeste 0 -- -- 80
2019-11-19 18:00:00 5.5 9 Sudoeste 11 Oeste 0 -- -- 77
2019-11-19 17:00:00 7.9 7 Sudoeste 18 Oeste 0 -- -- 64
2019-11-19 16:00:00 9.6 12 Oeste 28 Oeste 0 -- -- 58
2019-11-19 15:00:00 9.3 19 Sudoeste 34 Sudoeste 0 -- -- 57
2019-11-19 14:00:00 8.1 21 Sudoeste 33 Sudoeste 0 -- -- 64
2019-11-19 13:00:00 7.9 24 Sudoeste 34 Sudoeste 0 -- -- 66
2019-11-19 12:00:00 7 20 Sudoeste 31 Sudoeste 0 -- -- 70
2019-11-19 11:00:00 5.1 18 Sudoeste 28 Sudoeste 0 -- -- 76
2019-11-19 10:00:00 3.2 14 Sudoeste 21 Sudoeste 0 -- -- 81
2019-11-19 09:00:00 -0.6 2 Sur 10 Sudoeste 0 -- -- 90
2019-11-19 08:00:00 -0.9 3 Sudoeste 12 Sudoeste 0 -- -- 88
2019-11-19 07:00:00 -1 10 Sudoeste 13 Sudoeste 0 -- -- 90
2019-11-19 06:00:00 -0.8 6 Sur 18 Sudoeste 0 -- -- 89
2019-11-19 05:00:00 -0.6 9 Oeste 17 Sudoeste 0 -- -- 89
2019-11-19 04:00:00 -0.9 8 Sur 19 Sudoeste 0 -- -- 89
2019-11-19 03:00:00 -0.2 9 Sudoeste 15 Sudoeste 0 -- -- 87
2019-11-19 02:00:00 -0.2 12 Oeste 21 Oeste 0 -- -- 87
2019-11-19 01:00:00 -0.5 4 Sudoeste 9 Sudoeste 0 -- -- 88
2019-11-19 00:00:00 0.3 6 Sudoeste 17 Oeste 0 -- -- 86
2019-11-18 23:00:00 0.4 8 Sudoeste 11 Sudoeste 0 -- -- 86
2019-11-18 22:00:00 1.7 3 Oeste 10 Oeste 0 -- -- 81
2019-11-18 21:00:00 2.8 6 Oeste 15 Oeste 0 -- -- 76
2019-11-18 20:00:00 4.3 6 Oeste 14 Oeste 0 -- -- 71
2019-11-18 19:00:00 5.1 4 Noroeste 19 Noroeste 0 -- -- 72
2019-11-18 18:00:00 5.9 0 Calma 12 Noroeste 0 -- -- 71
2019-11-18 17:00:00 6.8 9 Norte 14 Norte 0 -- -- 64
2019-11-18 16:00:00 7.4 4 Noroeste 19 Oeste 0 -- -- 63
2019-11-18 15:00:00 7.1 14 Oeste 26 Oeste 0 -- -- 69
2019-11-18 14:00:00 6.8 14 Oeste 28 Oeste 0.2 -- -- 72
2019-11-18 13:00:00 6.8 17 Oeste 33 Oeste 0 -- -- 71
2019-11-18 12:00:00 5.9 17 Oeste 28 Oeste 0 -- -- 77
2019-11-18 11:00:00 4.8 14 Oeste 24 Oeste 0 -- -- 75
2019-11-18 10:00:00 3.5 4 Sudoeste 18 Oeste 0 -- -- 86
2019-11-18 09:00:00 1.7 4 Sudeste 14 Sudoeste 0 -- -- 92
2019-11-18 08:00:00 1.4 8 Sudoeste 15 Sudoeste 0 -- -- 91
2019-11-18 07:00:00 1.7 5 Oeste 13 Sudoeste 0 -- -- 90
2019-11-18 06:00:00 2.3 4 Oeste 14 Sudoeste 0 -- -- 90
2019-11-18 05:00:00 1.9 4 Sudoeste 11 Sudoeste 0 -- -- 90
2019-11-18 04:00:00 2.5 0 Calma 21 Sudoeste 0 -- -- 88
2019-11-18 03:00:00 2.6 15 Sudoeste 26 Sudoeste 0 -- -- 89
2019-11-18 02:00:00 2.6 18 Sudoeste 37 Sudoeste 0 -- -- 87
2019-11-18 01:00:00 3 21 Sudoeste 30 Sudoeste 0 -- -- 87
2019-11-18 00:00:00 3.4 9 Sudoeste 27 Sudoeste 0 -- -- 85
2019-11-17 23:00:00 4.2 13 Sudoeste 21 Sudoeste 0 -- -- 87
2019-11-17 22:00:00 4.7 12 Sudoeste 23 Sudoeste 0 -- -- 90
2019-11-17 21:00:00 4.9 12 Sudoeste 24 Sudoeste 1 -- -- 91
2019-11-17 20:00:00 5.2 12 Oeste 17 Oeste 1.6 -- -- 93
2019-11-17 19:00:00 4.9 7 Oeste 18 Sudoeste 1.8 -- -- 92
2019-11-17 18:00:00 4.7 13 Sudoeste 37 Sur 2 -- -- 91
2019-11-17 17:00:00 4.8 21 Sudoeste 32 Sudoeste 1 -- -- 90
2019-11-17 16:00:00 4.7 22 Sudoeste 43 Sudoeste 0 -- -- 87
2019-11-17 15:00:00 4.6 20 Sur 39 Sudoeste 0.4 -- -- 86
2019-11-17 14:00:00 4.5 24 Sur 46 Sur 0.4 -- -- 83
2019-11-17 13:00:00 6.7 28 Sudoeste 48 Sudoeste 0 -- -- 70
2019-11-17 12:00:00 6.6 30 Sudoeste 45 Sudoeste 0 -- -- 71
2019-11-17 11:00:00 5.5 21 Sur 37 Sur 0 -- -- 73
2019-11-17 10:00:00 4.4 20 Sur 42 Sur 0 -- -- 73
2019-11-17 09:00:00 3.9 36 Sudoeste 50 Sudoeste 0 -- -- 75
2019-11-17 08:00:00 2.8 27 Sudoeste 38 Sudoeste 0 -- -- 77
2019-11-17 07:00:00 1.9 22 Sudoeste 33 Sudoeste 0 -- -- 79
2019-11-17 06:00:00 1.6 13 Sudoeste 22 Sudoeste 0 -- -- 80
2019-11-17 05:00:00 1.6 12 Sudoeste 24 Sudoeste 0 -- -- 82
2019-11-17 04:00:00 0.8 14 Sur 21 Sudoeste 0 -- -- 84
2019-11-17 03:00:00 1.1 17 Sudoeste 29 Sudoeste 0 -- -- 83
2019-11-17 02:00:00 1.7 21 Sudoeste 28 Sudoeste 0 -- -- 83
2019-11-17 01:00:00 1.2 11 Sudoeste 17 Sudoeste 0 -- -- 84
2019-11-17 00:00:00 2.5 8 Sudoeste 15 Oeste 0 -- -- 82
2019-11-16 23:00:00 1.4 6 Sudoeste 15 Sudoeste 0 -- -- 81
2019-11-16 22:00:00 3 9 Sudoeste 19 Sudoeste 0 -- -- 73
2019-11-16 21:00:00 3.6 9 Sudoeste 17 Sudoeste 0 -- -- 74
2019-11-16 20:00:00 3.9 12 Sudoeste 25 Sudoeste 0 -- -- 72
2019-11-16 19:00:00 4.4 18 Sudoeste 28 Sudoeste 0 -- -- 68
2019-11-16 18:00:00 5.1 21 Sudoeste 31 Sudoeste 0 -- -- 66
2019-11-16 17:00:00 5.8 22 Sudoeste 41 Sudoeste 0 -- -- 65
2019-11-16 16:00:00 6.1 30 Sudoeste 45 Sudoeste 0 -- -- 64
2019-11-16 15:00:00 6.1 23 Sudoeste 34 Sudoeste 0 -- -- 68
2019-11-16 14:00:00 4.6 24 Sudoeste 37 Sudoeste 0 -- -- 73
2019-11-16 13:00:00 4.6 26 Sudoeste 38 Sudoeste 0.2 -- -- 74
2019-11-16 12:00:00 4 25 Sudoeste 34 Sudoeste 0 -- -- 78
2019-11-16 11:00:00 2.9 8 Oeste 21 Oeste 0 -- -- 80
2019-11-16 10:00:00 2.4 10 Sudoeste 17 Sudoeste 0 -- -- 83
2019-11-16 09:00:00 0.4 2 Sur 17 Sudoeste 0 -- -- 90
2019-11-16 08:00:00 -0.7 3 Sudoeste 13 Oeste 0 -- -- 89
2019-11-16 07:00:00 -0.4 3 Sudoeste 13 Oeste 0 -- -- 89
2019-11-16 06:00:00 -0.1 6 Oeste 10 Oeste 0 -- -- 90
2019-11-16 05:00:00 0.4 4 Sudoeste 17 Oeste 0 -- -- 89
2019-11-16 04:00:00 1.4 13 Oeste 19 Oeste 0 -- -- 88
2019-11-16 03:00:00 1.9 0 Calma 15 Oeste 0 -- -- 87
2019-11-16 02:00:00 2.5 4 Sudoeste 17 Oeste 0 -- -- 88
2019-11-16 01:00:00 2.5 11 Sudoeste 19 Sudoeste 0 -- -- 89
2019-11-16 00:00:00 2.3 6 Sur 21 Sudoeste 0 -- -- 90
2019-11-15 23:00:00 2.5 16 Sudoeste 29 Sudoeste 0.2 -- -- 89
2019-11-15 22:00:00 2.6 18 Sudoeste 31 Sudoeste 0 -- -- 87
2019-11-15 21:00:00 2.2 12 Sudoeste 35 Sudoeste 0 -- -- 89
2019-11-15 20:00:00 2.7 23 Sudoeste 31 Sudoeste 0 -- -- 88
2019-11-15 19:00:00 2.7 7 Sur 37 Sudoeste 0 -- -- 86
2019-11-15 18:00:00 3.8 19 Sudoeste 38 Sudoeste 0 -- -- 83
2019-11-15 17:00:00 4.2 29 Sudoeste 51 Sudoeste 0 -- -- 80
2019-11-15 16:00:00 6.1 31 Sudoeste 48 Sudoeste 0 -- -- 70
2019-11-15 15:00:00 5.3 24 Sudoeste 37 Sudoeste 0 -- -- 78
2019-11-15 14:00:00 4.5 29 Sudoeste 48 Oeste 0 -- -- 77
2019-11-15 13:00:00 4.5 29 Sudoeste 50 Sudoeste 0 -- -- 74
2019-11-15 12:00:00 4.8 34 Sudoeste 48 Sudoeste 0 -- -- 74
2019-11-15 11:00:00 3.7 31 Sudoeste 45 Sudoeste 0 -- -- 78
2019-11-15 10:00:00 3.3 23 Sudoeste 44 Sudoeste 0 -- -- 80
2019-11-15 09:00:00 2.8 23 Sudoeste 40 Sudoeste 0 -- -- 83
2019-11-15 08:00:00 2.5 24 Sudoeste 38 Sudoeste 0 -- -- 84
2019-11-15 07:00:00 2.1 19 Sudoeste 30 Sudoeste 0 -- -- 86
2019-11-15 06:00:00 1.9 18 Sudoeste 33 Sudoeste 0 -- -- 87
2019-11-15 05:00:00 1.4 9 Sudoeste 23 Sudoeste 0 -- -- 86
2019-11-15 04:00:00 1.4 12 Sudoeste 39 Oeste 0 -- -- 82
2019-11-15 03:00:00 2 22 Sudoeste 40 Sudoeste 0 -- -- 82
2019-11-15 02:00:00 2.2 25 Sudoeste 36 Sudoeste 0 -- -- 87
2019-11-15 01:00:00 2.4 22 Sudoeste 36 Sudoeste 0 -- -- 85
2019-11-15 00:00:00 2.2 16 Sudoeste 33 Oeste 0 -- -- 84
2019-11-14 23:00:00 2.3 24 Sudoeste 35 Sudoeste 0 -- -- 84
2019-11-14 22:00:00 2.2 18 Oeste 40 Oeste 0 -- -- 84
2019-11-14 21:00:00 2.4 28 Sudoeste 40 Sudoeste 0.2 -- -- 86
2019-11-14 20:00:00 2.7 16 Sudoeste 28 Sudoeste 0.2 -- -- 88
2019-11-14 19:00:00 3 9 Sudoeste 30 Sudoeste 0.4 -- -- 85
2019-11-14 18:00:00 3.9 4 Sur 28 Sudoeste 0 -- -- 72
2019-11-14 17:00:00 5.3 23 Sudoeste 41 Sudoeste 0 -- -- 67
2019-11-14 16:00:00 6.8 17 Sudoeste 35 Sudoeste 0 -- -- 54
2019-11-14 15:00:00 5.9 24 Sudoeste 43 Sudoeste 0 -- -- 58
2019-11-14 14:00:00 6.6 32 Sudoeste 51 Sudoeste 0 -- -- 56
2019-11-14 13:00:00 6.4 35 Sudoeste 52 Sudoeste 0 -- -- 61
2019-11-14 12:00:00 4.8 29 Sudoeste 48 Sudoeste 0 -- -- 69
2019-11-14 11:00:00 4.4 28 Sudoeste 40 Sudoeste 0 -- -- 77
2019-11-14 10:00:00 3.8 21 Sudoeste 29 Sudoeste 0 -- -- 83
2019-11-14 09:00:00 3.2 10 Sudoeste 35 Sudoeste 0 -- -- 90
2019-11-14 08:00:00 3.1 28 Sudoeste 56 Oeste 2.8 -- -- 89
2019-11-14 07:00:00 6.1 23 Sudoeste 42 Sudoeste 1.2 -- -- 84
2019-11-14 06:00:00 7.1 28 Sur 39 Sur 0 -- -- 76
2019-11-14 05:00:00 7.5 24 Sudoeste 41 Sudoeste 0 -- -- 68
2019-11-14 04:00:00 8.1 20 Sur 39 Sudoeste 0 -- -- 67
2019-11-14 03:00:00 8.2 21 Sudoeste 39 Sudoeste 0 -- -- 71
2019-11-14 02:00:00 8.3 27 Sudoeste 36 Sudoeste 0 -- -- 75
2019-11-14 01:00:00 7.8 19 Sudoeste 33 Sudoeste 0 -- -- 75
2019-11-14 00:00:00 8.3 24 Sudoeste 41 Sudoeste 0 -- -- 73
2019-11-13 23:00:00 7.6 18 Sudoeste 28 Sur 0 -- -- 74
2019-11-13 22:00:00 7.2 6 Sudoeste 28 Sudoeste 0 -- -- 73
2019-11-13 21:00:00 7.5 12 Sur 21 Sur 0 -- -- 73
2019-11-13 20:00:00 6.9 8 Sudoeste 17 Sur 0 -- -- 77
2019-11-13 19:00:00 7.5 7 Sur 12 Sudoeste 0 -- -- 79
2019-11-13 18:00:00 9.7 12 Sudoeste 32 Sudoeste 0 -- -- 70
2019-11-13 17:00:00 10.7 20 Sudoeste 33 Sudoeste 0 -- -- 64
2019-11-13 16:00:00 11.6 24 Sudoeste 30 Sudoeste 0 -- -- 59
2019-11-13 15:00:00 11.3 9 Sudoeste 23 Oeste 0 -- -- 64
2019-11-13 14:00:00 11.5 11 Oeste 25 Oeste 0 -- -- 61
2019-11-13 13:00:00 12.1 10 Noroeste 23 Oeste 0 -- -- 64
2019-11-13 12:00:00 10.2 8 Noroeste 20 Noroeste 0 -- -- 69
2019-11-13 11:00:00 8.8 9 Oeste 24 Noroeste 0 -- -- 80
2019-11-13 10:00:00 8.2 9 Noroeste 17 Noroeste 0 -- -- 82
2019-11-13 09:00:00 7.9 6 Oeste 36 Oeste 0 -- -- 85
2019-11-13 08:00:00 8.9 29 Oeste 47 Oeste 0.2 -- -- 88
2019-11-13 07:00:00 8.7 13 Sudoeste 20 Sudoeste 0.6 -- -- 94
2019-11-13 06:00:00 8.3 13 Sudoeste 23 Sudoeste 0.8 -- -- 92
2019-11-13 05:00:00 7.9 17 Sudoeste 26 Sudoeste 2.2 -- -- 92
2019-11-13 04:00:00 7.9 13 Sudoeste 30 Sur 3.2 -- -- 91
2019-11-13 03:00:00 7.7 14 Sudoeste 35 Sudoeste 0.8 -- -- 90
2019-11-13 02:00:00 7.5 25 Sudoeste 40 Sur 0.2 -- -- 87
2019-11-13 01:00:00 7.5 21 Sudoeste 31 Sudoeste 0 -- -- 86
2019-11-13 00:00:00 6.9 21 Sudoeste 31 Sudoeste 0 -- -- 85
2019-11-12 23:00:00 6.6 19 Sudoeste 34 Sur 0 -- -- 81
2019-11-12 22:00:00 6.4 14 Sudoeste 29 Sudoeste 0.2 -- -- 82
2019-11-12 21:00:00 6.7 13 Sudoeste 21 Sudoeste 0.2 -- -- 80
2019-11-12 20:00:00 6.8 5 Sudoeste 12 Sudoeste 0 -- -- 78
2019-11-12 19:00:00 7.6 11 Sudoeste 19 Sudoeste 0 -- -- 69
2019-11-12 18:00:00 7.9 7 Sudoeste 27 Sudoeste 0 -- -- 69
2019-11-12 17:00:00 8.4 19 Sudoeste 35 Sudoeste 0 -- -- 66
2019-11-12 16:00:00 9.4 24 Oeste 38 Sudoeste 0 -- -- 61
2019-11-12 15:00:00 10.1 26 Sudoeste 40 Oeste 0 -- -- 59
2019-11-12 14:00:00 9.4 22 Sudoeste 33 Sudoeste 0 -- -- 60
2019-11-12 13:00:00 8.9 15 Oeste 29 Sudoeste 0 -- -- 64
2019-11-12 12:00:00 8.2 24 Sudoeste 36 Sudoeste 0 -- -- 69
2019-11-12 11:00:00 6.1 16 Sudoeste 29 Sudoeste 0 -- -- 77
2019-11-12 10:00:00 4.7 18 Sudoeste 24 Sudoeste 0 -- -- 83
2019-11-12 09:00:00 3.1 10 Sur 18 Sudoeste 0 -- -- 90
2019-11-12 08:00:00 1 7 Sudoeste 16 Sudoeste 0 -- -- 89
2019-11-12 07:00:00 1.6 10 Sudoeste 24 Sudoeste 0 -- -- 88
2019-11-12 06:00:00 1.6 15 Sudoeste 22 Sudoeste 0 -- -- 89
2019-11-12 05:00:00 1.7 10 Sudoeste 21 Sudoeste 0 -- -- 87
2019-11-12 04:00:00 2 10 Sudoeste 21 Sudoeste 0 -- -- 88
2019-11-12 03:00:00 2 12 Oeste 17 Oeste 0 -- -- 88
2019-11-12 02:00:00 0.9 10 Sudoeste 13 Sudoeste 0 -- -- 90
2019-11-12 01:00:00 1.5 8 Sudoeste 12 Oeste 0 -- -- 90
2019-11-12 00:00:00 1.7 9 Oeste 14 Oeste 0 -- -- 89